Du har inga inställningar för hoppväder.nu

Hoppväder.nu

Senast uppdaterat 02:29

UTC-tid

2019-07-24 kl. 00:29


Sol och måne

Solen går upp 4:32 och går ner 22:41 (beräknade cirkatider)
Nästa fullmåne blir om 22 dagar (2019-08-15)

METAR

ESOE (Örebro)
(9 minuter sedan)
ESOE 240020Z AUTO 22002KT 0200 R01/1400U R19/P2000N NCD 14/12 Q1018=



ESOK (Karlstad)
(9 minuter sedan)
ESOK 240020Z AUTO 00000KT 9999 R03/P1500N R21///// BCFG NCD 15/15 Q1018=



ESGR (Skövde)
(9 minuter sedan)
ESGR 240020Z AUTO /////KT 1000 R01/P2000N R19/P2000N BR NCD 13/13 Q1018=



ESSD (Borlänge)
(9 minuter sedan)
ESSD 240020Z AUTO 25004KT 9999 NCD 13/13 Q1018=



ESOW (Västerås)
(9 minuter sedan)
ESOW 240020Z AUTO 00000KT 0150 R01/0600D R19/0700N BCFG NCD 13/12 Q1018=



TAF

ESOE (Örebro)
(235 minuter sedan)
ESOE AMD 232034Z 2321/2401 VRB02KT CAVOK TEMPO 2321/2323 0300 BCFG PROB40 2323/2401 0300 FG VV002=



ESOK (Karlstad)
ESOK



ESGR (Skövde)
ESGR



ESSD (Borlänge)
ESSD



ESOW (Västerås)
ESOW





Kodnycklar till TAF och METAR






LHP

(Örebro är område G2a i Södra delen)

Prognos är inte uppdaterad




Spotting

Hur fungerar spotthjälpen och Vindkartan?

Markvind är ca 0 m/s.



Vindkartan

Senast uppdaterad 02:29




All data kommer från LFV.se